Time;durP1;ratioP1;P1;durP2;ratioP2;P2;SDS_P1;SDS_P2;PMS_P1;PMS_P2;Temp;Humidity;BMP_temperature;BMP_pressure;BME280_temperature;BME280_humidity;BME280_pressure;Samples;Min_cycle;Max_cycle;Signal;HPM_P1;HPM_P2
2021/07/17 00:00:35;;;;;;;14.32;12.82;;;25.90;98.50;;;;;;5022178;28;20032;-89
2021/07/17 00:03:03;;;;;;;15.30;13.73;;;26.00;98.50;;;;;;5036763;28;20438;-89
2021/07/17 00:05:29;;;;;;;14.15;12.75;;;25.90;98.60;;;;;;5036113;28;20025;-89
2021/07/17 00:07:55;;;;;;;15.15;12.95;;;25.90;98.80;;;;;;5036205;28;20033;-88
2021/07/17 00:10:47;;;;;;;13.70;12.23;;;25.90;98.90;;;;;;5034713;28;20116;-89
2021/07/17 00:13:14;;;;;;;14.27;12.38;;;25.90;98.90;;;;;;5032349;28;20040;-89
2021/07/17 00:15:39;;;;;;;14.60;12.63;;;25.90;98.90;;;;;;5035884;28;20460;-89
2021/07/17 00:18:05;;;;;;;14.18;12.45;;;25.90;99.00;;;;;;5036104;28;20100;-89
2021/07/17 00:20:33;;;;;;;13.80;12.30;;;26.00;99.20;;;;;;5034789;28;20028;-89
2021/07/17 00:22:59;;;;;;;13.73;12.43;;;26.00;99.20;;;;;;5036233;28;20021;-89
2021/07/17 00:25:24;;;;;;;15.02;13.43;;;26.00;99.20;;;;;;5035914;28;20021;-89
2021/07/17 00:27:51;;;;;;;13.38;12.00;;;26.00;99.20;;;;;;5036524;28;20033;-89
2021/07/17 00:30:17;;;;;;;13.85;11.93;;;26.00;99.20;;;;;;5035506;28;20021;-89
2021/07/17 00:32:44;;;;;;;14.00;12.57;;;25.90;99.20;;;;;;5034454;28;20411;-89
2021/07/17 00:35:10;;;;;;;13.65;12.35;;;25.90;99.20;;;;;;5034449;28;20026;-89
2021/07/17 00:37:36;;;;;;;13.20;11.95;;;25.90;99.20;;;;;;5024642;28;20018;-92
2021/07/17 00:40:04;;;;;;;13.65;11.80;;;25.90;99.30;;;;;;5014655;28;20056;-90
2021/07/17 00:42:30;;;;;;;13.70;12.40;;;25.80;99.30;;;;;;5014613;28;20137;-91
2021/07/17 00:44:56;;;;;;;14.25;12.73;;;25.80;99.30;;;;;;5014490;28;20105;-90
2021/07/17 00:47:23;;;;;;;14.32;12.82;;;25.80;99.30;;;;;;5015806;28;20026;-90
2021/07/17 00:49:49;;;;;;;13.50;12.05;;;25.70;99.30;;;;;;5014261;28;20018;-91
2021/07/17 00:52:15;;;;;;;15.05;12.95;;;25.70;99.30;;;;;;5014433;28;20530;-90
2021/07/17 00:54:41;;;;;;;13.27;11.82;;;25.70;99.40;;;;;;5014106;28;20057;-90
2021/07/17 00:57:09;;;;;;;12.85;11.60;;;25.60;99.30;;;;;;5014364;28;20030;-90
2021/07/17 00:59:37;;;;;;;14.60;12.98;;;25.60;99.40;;;;;;5014595;28;20022;-90
2021/07/17 01:02:04;;;;;;;13.65;12.25;;;25.60;99.40;;;;;;5015179;28;20026;-89
2021/07/17 01:04:31;;;;;;;14.07;11.75;;;25.50;99.40;;;;;;5014430;28;20542;-89
2021/07/17 01:06:58;;;;;;;13.20;11.98;;;25.60;99.40;;;;;;5015423;28;20080;-90
2021/07/17 01:09:26;;;;;;;14.32;12.55;;;25.50;99.40;;;;;;5014322;28;20392;-90
2021/07/17 01:11:52;;;;;;;14.68;12.93;;;25.50;99.40;;;;;;5014141;28;20025;-90
2021/07/17 01:14:18;;;;;;;14.10;12.80;;;25.50;99.50;;;;;;5013943;28;20121;-90
2021/07/17 01:16:44;;;;;;;14.20;12.40;;;25.50;99.50;;;;;;5014006;28;20030;-90
2021/07/17 01:19:11;;;;;;;13.82;12.38;;;25.40;99.50;;;;;;5015106;28;20033;-90
2021/07/17 01:21:37;;;;;;;14.18;12.68;;;25.40;99.50;;;;;;5013892;28;20022;-91
2021/07/17 01:24:03;;;;;;;13.95;12.30;;;25.40;99.50;;;;;;5013930;28;20026;-90
2021/07/17 01:26:30;;;;;;;14.13;12.70;;;25.40;99.50;;;;;;5013718;28;20080;-89
2021/07/17 01:28:55;;;;;;;13.07;11.82;;;25.30;99.50;;;;;;5013700;28;20029;-89
2021/07/17 01:31:22;;;;;;;14.10;12.43;;;25.40;99.60;;;;;;5013682;28;20033;-89
2021/07/17 01:33:48;;;;;;;13.98;12.10;;;25.40;99.60;;;;;;5013628;28;20030;-88
2021/07/17 01:36:14;;;;;;;13.75;12.35;;;25.30;99.50;;;;;;5013812;28;20487;-89
2021/07/17 01:38:40;;;;;;;19.58;12.68;;;25.30;99.70;;;;;;5013754;28;20022;-89
2021/07/17 01:41:06;;;;;;;15.77;13.50;;;25.20;99.60;;;;;;5013662;28;20022;-89
2021/07/17 01:43:32;;;;;;;15.35;12.88;;;25.30;99.70;;;;;;5013659;28;20388;-90
2021/07/17 01:45:59;;;;;;;17.40;13.55;;;25.30;99.90;;;;;;5013618;28;20025;-90
2021/07/17 01:48:25;;;;;;;14.32;12.82;;;25.30;99.60;;;;;;5014335;28;20022;-90
2021/07/17 01:50:51;;;;;;;15.95;12.80;;;25.30;99.60;;;;;;5013773;28;20030;-90
2021/07/17 01:53:18;;;;;;;14.30;12.70;;;25.30;99.60;;;;;;5013362;28;20045;-89
2021/07/17 01:55:44;;;;;;;14.85;13.35;;;25.20;99.60;;;;;;5013472;28;20468;-90
2021/07/17 01:58:10;;;;;;;14.18;12.52;;;25.20;99.50;;;;;;5014809;28;20029;-90
2021/07/17 18:36:44;;;;;;;9.75;8.65;;;27.40;92.40;;;;;;5092200;28;20394;-90
2021/07/17 18:39:10;;;;;;;9.18;7.85;;;27.00;92.00;;;;;;5074231;28;20146;-89
2021/07/17 18:41:36;;;;;;;11.80;8.55;;;27.00;92.10;;;;;;5073875;28;20042;-89
2021/07/17 18:44:02;;;;;;;10.05;8.00;;;27.00;92.30;;;;;;5073707;28;20024;-89
2021/07/17 18:46:28;;;;;;;10.40;9.00;;;27.00;92.40;;;;;;5073390;28;20071;-89
2021/07/17 18:48:54;;;;;;;11.65;8.02;;;27.10;92.40;;;;;;5086047;28;20390;-90
2021/07/17 18:51:19;;;;;;;9.82;7.95;;;27.00;92.30;;;;;;5063566;28;20024;-90
2021/07/17 18:53:45;;;;;;;8.32;7.53;;;27.10;92.40;;;;;;5061349;28;20032;-90
2021/07/17 18:56:11;;;;;;;8.75;7.75;;;27.10;92.30;;;;;;5064908;28;20055;-90
2021/07/17 18:58:36;;;;;;;9.50;7.82;;;27.10;92.20;;;;;;5053574;28;20025;-90
2021/07/17 19:01:03;;;;;;;9.20;7.60;;;27.20;92.10;;;;;;5054324;28;20044;-90
2021/07/17 19:03:29;;;;;;;8.80;7.90;;;27.20;92.10;;;;;;5053422;28;20021;-90
2021/07/17 19:05:54;;;;;;;8.15;7.13;;;27.20;92.00;;;;;;5053389;28;20486;-90
2021/07/17 19:08:20;;;;;;;9.50;8.13;;;27.20;91.90;;;;;;5053608;28;20028;-90
2021/07/17 19:10:47;;;;;;;10.15;7.80;;;27.20;91.90;;;;;;5053273;28;20463;-90
2021/07/17 19:13:13;;;;;;;8.90;8.00;;;27.20;91.80;;;;;;5053319;28;20039;-90
2021/07/17 19:15:39;;;;;;;8.75;7.38;;;27.20;91.90;;;;;;5070677;28;20033;-90
2021/07/17 19:18:05;;;;;;;9.43;7.85;;;27.20;91.90;;;;;;5053198;28;20102;-90
2021/07/17 19:20:30;;;;;;;7.97;7.18;;;27.20;91.90;;;;;;5053187;28;20352;-90
2021/07/17 19:22:56;;;;;;;9.10;7.40;;;27.20;91.90;;;;;;5053213;28;20028;-90
2021/07/17 19:25:25;;;;;;;8.10;7.22;;;27.20;91.80;;;;;;5052995;28;20024;-90
2021/07/17 19:27:51;;;;;;;8.07;7.15;;;27.20;91.90;;;;;;5052988;28;20029;-90
2021/07/17 19:30:19;;;;;;;8.45;7.50;;;27.10;91.90;;;;;;5053124;28;20032;-90
2021/07/17 19:32:45;;;;;;;9.57;7.45;;;27.10;91.90;;;;;;5052973;28;20025;-90
2021/07/17 19:35:15;;;;;;;8.45;7.60;;;27.10;91.80;;;;;;5052822;28;20080;-90
2021/07/17 19:37:42;;;;;;;13.20;7.93;;;27.10;91.90;;;;;;5052885;28;20025;-90
2021/07/17 19:40:11;;;;;;;9.20;7.25;;;27.10;91.90;;;;;;5052674;28;20031;-90
2021/07/17 19:42:38;;;;;;;10.30;7.07;;;27.10;91.90;;;;;;5052646;28;20025;-90
2021/07/17 19:45:18;;;;;;;9.38;7.72;;;27.10;91.90;;;;;;5052665;28;20078;-90
2021/07/17 19:47:44;;;;;;;10.55;8.35;;;27.00;91.90;;;;;;5040954;28;20033;-90
2021/07/17 19:50:11;;;;;;;10.75;8.18;;;27.00;92.00;;;;;;5039135;28;20032;-90
2021/07/17 19:52:37;;;;;;;8.95;7.82;;;27.00;92.00;;;;;;5056866;28;20475;-92
2021/07/17 19:55:05;;;;;;;10.32;8.50;;;27.00;92.20;;;;;;5039167;28;20028;-90
2021/07/17 19:57:32;;;;;;;9.40;8.40;;;27.00;92.40;;;;;;5039372;28;20021;-90
2021/07/17 19:59:58;;;;;;;10.18;8.63;;;27.00;92.60;;;;;;5039051;28;20108;-90
2021/07/17 20:02:24;;;;;;;10.32;9.23;;;27.00;92.60;;;;;;5039418;28;20059;-88
2021/07/17 20:04:50;;;;;;;10.30;9.10;;;27.00;92.90;;;;;;5056697;28;20024;-89
2021/07/17 20:07:16;;;;;;;11.07;9.20;;;27.00;93.20;;;;;;5039108;28;20025;-90
2021/07/17 20:09:42;;;;;;;10.38;9.25;;;27.00;93.30;;;;;;5038989;28;20047;-90
2021/07/17 20:12:08;;;;;;;10.90;8.73;;;27.00;93.40;;;;;;5038924;28;20024;-90
2021/07/17 20:14:34;;;;;;;13.18;8.98;;;26.90;93.40;;;;;;5039071;28;20029;-89
2021/07/17 20:17:00;;;;;;;11.68;9.05;;;26.90;93.40;;;;;;5038999;28;20021;-90
2021/07/17 20:19:27;;;;;;;11.43;9.10;;;26.90;93.50;;;;;;5038817;28;20467;-90
2021/07/17 20:21:56;;;;;;;10.43;9.15;;;26.90;93.50;;;;;;5056647;28;20021;-90
2021/07/17 20:24:21;;;;;;;10.27;8.90;;;26.90;93.60;;;;;;5038612;28;20052;-90
2021/07/17 20:26:47;;;;;;;9.90;8.93;;;26.90;93.70;;;;;;5038678;28;20521;-91
2021/07/17 20:29:13;;;;;;;11.60;8.60;;;26.80;93.80;;;;;;5038850;28;20025;-90
2021/07/17 20:31:39;;;;;;;9.85;8.32;;;26.80;93.90;;;;;;5038556;28;20028;-89
2021/07/17 20:34:06;;;;;;;10.18;9.18;;;26.80;93.90;;;;;;5038485;28;20021;-91
2021/07/17 20:36:32;;;;;;;12.02;9.98;;;26.80;94.00;;;;;;5038249;28;20060;-91
2021/07/17 20:38:59;;;;;;;11.45;9.70;;;26.80;94.10;;;;;;5056128;28;20024;-93
2021/07/17 20:41:25;;;;;;;11.77;9.50;;;26.70;94.20;;;;;;5038317;28;20028;-90
2021/07/17 20:43:50;;;;;;;12.05;9.45;;;26.70;94.30;;;;;;5038210;28;20025;-90
2021/07/17 20:46:16;;;;;;;14.25;10.10;;;26.70;94.50;;;;;;5038250;28;20032;-92
2021/07/17 20:48:42;;;;;;;12.73;9.52;;;26.70;94.60;;;;;;5038143;28;20033;-93
2021/07/17 20:51:07;;;;;;;13.75;9.65;;;26.60;94.60;;;;;;5038188;28;20036;-89
2021/07/17 20:53:33;;;;;;;12.50;10.77;;;26.60;94.70;;;;;;5038176;28;20044;-90
2021/07/17 20:56:00;;;;;;;14.63;11.20;;;26.60;94.80;;;;;;5021750;28;20033;-90
2021/07/17 20:58:28;;;;;;;11.60;10.13;;;26.60;94.80;;;;;;5037131;28;20040;-89
2021/07/17 21:00:54;;;;;;;9.32;8.43;;;26.50;94.80;;;;;;5037948;28;20361;-89
2021/07/17 21:03:20;;;;;;;12.82;9.00;;;26.50;94.80;;;;;;5055609;28;20096;-90
2021/07/17 21:05:45;;;;;;;11.65;9.77;;;26.40;94.80;;;;;;5037915;28;20494;-90
2021/07/17 21:08:11;;;;;;;9.90;8.90;;;26.40;94.90;;;;;;5055484;28;20029;-88
2021/07/17 21:10:37;;;;;;;12.77;9.18;;;26.40;95.20;;;;;;5037793;28;20040;-92
2021/07/17 21:13:02;;;;;;;11.70;9.18;;;26.30;94.80;;;;;;5037903;28;20028;-90
2021/07/17 21:15:28;;;;;;;11.73;9.23;;;26.30;94.80;;;;;;5037698;28;20475;-92
2021/07/17 21:17:55;;;;;;;12.18;9.05;;;26.30;94.80;;;;;;5038020;28;20036;-89
2021/07/17 21:20:24;;;;;;;11.05;8.15;;;26.30;94.80;;;;;;5037554;28;20048;-92
2021/07/17 21:22:50;;;;;;;8.83;7.77;;;26.30;94.60;;;;;;5037616;28;20123;-93
2021/07/17 21:25:19;;;;;;;11.40;9.25;;;26.30;94.60;;;;;;5037489;28;20029;-91
2021/07/17 21:27:44;;;;;;;10.82;8.75;;;26.30;94.70;;;;;;5037570;28;20490;-91
2021/07/17 21:30:11;;;;;;;13.77;9.02;;;26.30;94.70;;;;;;5037446;28;20056;-91
2021/07/17 21:32:38;;;;;;;10.23;8.45;;;26.20;94.80;;;;;;5037452;28;20483;-91
2021/07/17 21:35:05;;;;;;;13.50;9.20;;;26.30;94.90;;;;;;5037066;28;20056;-92
2021/07/17 21:37:31;;;;;;;10.68;8.52;;;26.20;95.00;;;;;;5038148;28;20025;-91
2021/07/17 21:39:58;;;;;;;12.98;9.07;;;26.20;95.40;;;;;;5037372;28;20017;-92
2021/07/17 21:42:23;;;;;;;10.02;8.65;;;26.20;95.20;;;;;;5037240;28;20025;-91
2021/07/17 21:44:49;;;;;;;11.07;8.80;;;26.10;95.10;;;;;;5037283;28;20082;-91
2021/07/17 21:47:15;;;;;;;10.65;8.82;;;26.10;95.20;;;;;;5037089;28;20356;-89
2021/07/17 21:49:41;;;;;;;12.15;9.18;;;26.10;95.20;;;;;;5037116;28;20033;-89
2021/07/17 21:52:07;;;;;;;11.25;8.70;;;26.10;95.20;;;;;;5037063;28;20025;-91
2021/07/17 21:54:33;;;;;;;10.88;8.65;;;26.10;95.30;;;;;;5036941;28;20037;-90
2021/07/17 21:56:59;;;;;;;10.80;8.93;;;26.10;95.30;;;;;;5036927;28;20055;-91
2021/07/17 21:59:24;;;;;;;12.82;8.40;;;26.10;95.30;;;;;;5037751;28;20482;-92
2021/07/17 22:01:50;;;;;;;8.73;7.85;;;26.10;95.30;;;;;;5036915;28;20047;-92
2021/07/17 22:04:16;;;;;;;11.68;8.40;;;26.10;95.30;;;;;;5036777;28;20025;-90
2021/07/17 22:06:42;;;;;;;12.02;9.40;;;26.10;95.20;;;;;;5036878;28;20039;-92
2021/07/17 22:09:07;;;;;;;10.20;9.10;;;26.10;95.30;;;;;;5036752;28;20029;-92
2021/07/17 22:11:33;;;;;;;9.43;8.43;;;26.00;95.30;;;;;;5036593;28;20028;-93
2021/07/17 22:13:59;;;;;;;10.77;8.98;;;26.00;95.40;;;;;;5036780;28;20035;-89
2021/07/17 22:16:25;;;;;;;13.70;9.88;;;26.00;95.50;;;;;;5036685;28;20483;-91
2021/07/17 22:18:51;;;;;;;13.00;9.32;;;25.90;95.60;;;;;;5036899;28;20540;-89
2021/07/17 22:21:17;;;;;;;13.80;8.93;;;26.00;95.70;;;;;;5054482;28;20017;-89
2021/07/17 22:23:45;;;;;;;9.95;8.98;;;26.00;95.60;;;;;;5036840;28;20112;-89
2021/07/17 22:26:11;;;;;;;10.20;8.50;;;26.00;95.50;;;;;;5036747;28;20032;-88
2021/07/17 22:28:38;;;;;;;16.45;9.82;;;26.00;95.50;;;;;;5054179;28;20379;-88
2021/07/17 22:31:05;;;;;;;14.10;10.18;;;25.90;95.50;;;;;;5036542;28;20111;-89
2021/07/17 22:33:31;;;;;;;9.52;8.52;;;25.90;95.40;;;;;;5036702;28;20032;-88
2021/07/17 22:35:57;;;;;;;9.88;8.55;;;25.80;95.30;;;;;;5036039;28;20514;-89
2021/07/17 22:38:24;;;;;;;10.10;9.05;;;25.90;95.40;;;;;;5036387;28;20025;-90
2021/07/17 22:40:52;;;;;;;9.63;8.63;;;25.80;95.30;;;;;;5036367;28;20059;-90
2021/07/17 22:43:19;;;;;;;11.65;8.82;;;25.80;95.30;;;;;;5054104;28;20021;-90
2021/07/17 22:45:44;;;;;;;12.05;9.68;;;25.80;95.30;;;;;;5036357;28;20120;-88
2021/07/17 22:48:10;;;;;;;13.48;9.15;;;25.70;95.30;;;;;;5036360;28;20056;-89
2021/07/17 22:50:42;;;;;;;9.85;8.77;;;25.70;95.30;;;;;;5036194;28;20039;-88
2021/07/17 22:53:08;;;;;;;11.35;9.10;;;25.80;95.30;;;;;;5036325;28;20029;-89
2021/07/17 22:55:34;;;;;;;11.63;9.20;;;25.70;95.30;;;;;;5053855;28;20083;-89
2021/07/17 22:58:01;;;;;;;13.48;9.63;;;25.70;95.40;;;;;;5036366;28;20126;-89
2021/07/17 23:00:29;;;;;;;18.38;10.73;;;25.70;95.40;;;;;;5036330;28;20032;-89
2021/07/17 23:02:55;;;;;;;10.40;9.07;;;25.60;95.40;;;;;;5036334;28;20036;-89
2021/07/17 23:05:22;;;;;;;10.25;9.05;;;25.60;95.50;;;;;;5036301;28;20021;-89
2021/07/17 23:07:51;;;;;;;14.30;9.88;;;25.60;95.50;;;;;;5036056;28;20025;-90
2021/07/17 23:10:17;;;;;;;10.98;9.55;;;25.60;95.60;;;;;;5054090;28;20021;-89
2021/07/17 23:12:43;;;;;;;10.90;9.57;;;25.60;95.70;;;;;;5036257;28;20044;-89
2021/07/17 23:15:11;;;;;;;13.85;10.27;;;25.60;95.60;;;;;;5036116;28;20029;-90
2021/07/17 23:17:38;;;;;;;11.18;9.73;;;25.60;95.70;;;;;;5053759;28;20025;-89
2021/07/17 23:20:11;;;;;;;11.00;9.90;;;25.50;95.70;;;;;;5036135;28;20032;-90
2021/07/17 23:22:37;;;;;;;10.07;9.07;;;25.50;95.70;;;;;;5038570;28;20082;-90
2021/07/17 23:25:05;;;;;;;12.77;9.90;;;25.50;95.80;;;;;;5040019;28;20021;-89
2021/07/17 23:27:31;;;;;;;13.40;9.98;;;25.40;95.80;;;;;;5057361;28;20028;-88
2021/07/17 23:29:57;;;;;;;13.00;10.23;;;25.50;95.80;;;;;;5057356;28;20421;-90
2021/07/17 23:32:23;;;;;;;12.05;9.25;;;25.50;95.90;;;;;;5039756;28;20021;-88
2021/07/17 23:34:49;;;;;;;10.68;9.52;;;25.40;95.80;;;;;;5039095;28;20076;-89
2021/07/17 23:37:15;;;;;;;13.07;9.77;;;25.40;95.80;;;;;;5039646;28;20399;-91
2021/07/17 23:39:41;;;;;;;12.63;10.40;;;25.40;95.80;;;;;;5039665;28;20028;-89
2021/07/17 23:42:07;;;;;;;11.55;10.10;;;25.40;95.80;;;;;;5039788;28;20021;-90
2021/07/17 23:44:32;;;;;;;13.30;10.55;;;25.40;95.90;;;;;;5039834;28;20037;-90
2021/07/17 23:46:58;;;;;;;13.02;10.68;;;25.40;95.90;;;;;;5039550;28;20028;-90
2021/07/17 23:49:24;;;;;;;14.18;10.05;;;25.40;95.90;;;;;;5057100;28;20075;-89
2021/07/17 23:51:50;;;;;;;11.63;9.70;;;25.40;96.00;;;;;;5039261;28;20031;-90
2021/07/17 23:54:16;;;;;;;23.05;10.80;;;25.40;96.10;;;;;;5039421;28;20021;-90
2021/07/17 23:56:42;;;;;;;13.55;10.25;;;25.30;96.10;;;;;;5039287;28;20475;-91
2021/07/17 23:59:10;;;;;;;11.13;9.50;;;25.30;96.20;;;;;;5056937;28;20028;-90
